createdAt,value
2023-09-22T00:02:07.035Z,97143.69
2023-09-22T00:04:33.895Z,97137.97
2023-09-22T00:07:00.803Z,97139.38
2023-09-22T00:09:27.556Z,97137.25
2023-09-22T00:11:54.270Z,97128.97
2023-09-22T00:14:20.970Z,97129.72
2023-09-22T00:16:47.665Z,97130.50
2023-09-22T00:19:14.378Z,97133.41
2023-09-22T00:21:42.240Z,97125.78
2023-09-22T00:24:09.713Z,97123.22
2023-09-22T00:26:36.303Z,97119.47
2023-09-22T00:29:02.945Z,97132.75
2023-09-22T00:31:30.107Z,97120.81
2023-09-22T00:33:57.379Z,97113.69
2023-09-22T00:36:24.204Z,97120.81
2023-09-22T00:38:50.777Z,97117.91
2023-09-22T00:41:17.325Z,97118.56
2023-09-22T00:43:45.154Z,97119.22
2023-09-22T00:46:13.498Z,97119.88
2023-09-22T00:48:41.973Z,97111.50
2023-09-22T00:51:09.261Z,97113.03
2023-09-22T00:53:38.551Z,97116.41
2023-09-22T00:56:06.533Z,97108.91
2023-09-22T00:58:33.489Z,97100.31
2023-09-22T01:01:00.258Z,97089.06
2023-09-22T01:03:27.191Z,97086.34
2023-09-22T01:05:54.549Z,97088.22
2023-09-22T01:08:21.191Z,97090.50
2023-09-22T01:10:47.999Z,97088.31
2023-09-22T01:13:14.892Z,97091.44
2023-09-22T01:15:44.474Z,97095.75
2023-09-22T01:18:14.224Z,97093.41
2023-09-22T01:20:43.073Z,97089.53
2023-09-22T01:23:10.131Z,97097.22
2023-09-22T01:25:37.745Z,97087.09
2023-09-22T01:28:04.484Z,97094.13
2023-09-22T01:30:33.428Z,97083.16
2023-09-22T01:33:05.419Z,97068.44
2023-09-22T01:35:36.741Z,97068.97
2023-09-22T01:38:06.508Z,97073.28
2023-09-22T01:40:33.536Z,97060.25
2023-09-22T01:43:00.180Z,97060.19
2023-09-22T01:45:26.835Z,97060.91
2023-09-22T01:47:53.514Z,97052.25
2023-09-22T01:50:20.752Z,97049.09
2023-09-22T01:52:47.931Z,97057.44
2023-09-22T01:55:14.500Z,97059.97
2023-09-22T01:57:41.158Z,97052.25
2023-09-22T02:00:09.077Z,97059.22
2023-09-22T02:02:36.529Z,97062.25
2023-09-22T02:05:04.164Z,97056.41
2023-09-22T02:07:30.876Z,97056.88
2023-09-22T02:09:57.506Z,97057.19
2023-09-22T02:12:24.557Z,97068.31
2023-09-22T02:14:52.654Z,97056.72
2023-09-22T02:17:19.170Z,97055.97
2023-09-22T02:19:46.267Z,97058.75
2023-09-22T02:22:13.202Z,97064.84
2023-09-22T02:24:40.497Z,97053.31
2023-09-22T02:27:07.172Z,97055.38
2023-09-22T02:29:33.743Z,97056.63
2023-09-22T02:32:00.325Z,97057.63
2023-09-22T02:34:26.924Z,97052.59
2023-09-22T02:36:53.990Z,97050.88
2023-09-22T02:39:21.124Z,97054.25
2023-09-22T02:41:48.443Z,97059.50
2023-09-22T02:44:15.140Z,97065.44
2023-09-22T02:46:42.030Z,97064.00
2023-09-22T02:49:10.019Z,97064.50
2023-09-22T02:51:36.667Z,97065.97
2023-09-22T02:54:03.564Z,97056.78
2023-09-22T02:56:30.842Z,97068.50
2023-09-22T02:58:58.328Z,97070.41
2023-09-22T03:01:25.497Z,97064.97
2023-09-22T03:03:52.445Z,97063.91
2023-09-22T03:06:20.572Z,97066.63
2023-09-22T03:08:47.234Z,97068.50
2023-09-22T03:11:14.407Z,97068.50
2023-09-22T03:13:41.125Z,97064.50
2023-09-22T03:16:07.835Z,97070.09
2023-09-22T03:18:34.585Z,97073.88
2023-09-22T03:21:01.205Z,97063.53
2023-09-22T03:23:27.854Z,97065.44
2023-09-22T03:25:54.587Z,97065.44
2023-09-22T03:28:21.511Z,97064.38
2023-09-22T03:30:48.137Z,97067.97
2023-09-22T03:33:15.723Z,97062.53
2023-09-22T03:35:42.321Z,97058.75
2023-09-22T03:38:11.186Z,97074.06
2023-09-22T03:40:42.493Z,97073.00
2023-09-22T03:43:12.304Z,97075.56
2023-09-22T03:45:39.412Z,97081.84
2023-09-22T03:48:06.347Z,97079.09
2023-09-22T03:50:33.226Z,97069.94
2023-09-22T03:53:00.860Z,97067.84
2023-09-22T03:55:28.081Z,97085.03
2023-09-22T03:57:54.747Z,97089.28
2023-09-22T04:00:28.785Z,97083.44
2023-09-22T04:02:55.490Z,97072.22
2023-09-22T04:05:22.221Z,97073.69
2023-09-22T04:07:48.893Z,97064.50
2023-09-22T04:10:18.069Z,97065.53
2023-09-22T04:12:45.182Z,97063.19
2023-09-22T04:15:11.982Z,97054.53
2023-09-22T04:17:39.931Z,97063.25
2023-09-22T04:20:09.443Z,97056.31
2023-09-22T04:22:36.473Z,97069.28
2023-09-22T04:25:09.267Z,97057.56
2023-09-22T04:27:41.084Z,97061.13
2023-09-22T04:30:09.012Z,97067.56
2023-09-22T04:32:39.449Z,97066.38
2023-09-22T04:35:11.740Z,97067.03
2023-09-22T04:37:38.610Z,97065.13
2023-09-22T04:40:10.892Z,97068.88
2023-09-22T04:42:38.045Z,97070.41
2023-09-22T04:45:05.309Z,97073.97
2023-09-22T04:47:31.934Z,97064.97
2023-09-22T04:49:58.524Z,97071.06
2023-09-22T04:52:26.174Z,97077.50
2023-09-22T04:54:52.784Z,97075.84
2023-09-22T04:57:19.373Z,97068.69
2023-09-22T04:59:46.455Z,97062.72
2023-09-22T05:02:14.179Z,97072.22
2023-09-22T05:04:40.806Z,97074.34
2023-09-22T05:07:07.583Z,97069.56
2023-09-22T05:09:34.646Z,97060.84
2023-09-22T05:12:02.436Z,97062.50
2023-09-22T05:14:28.998Z,97061.69
2023-09-22T05:16:55.683Z,97064.41
2023-09-22T05:19:23.218Z,97059.59
2023-09-22T05:21:51.850Z,97062.44
2023-09-22T05:24:18.445Z,97059.78
2023-09-22T05:26:45.243Z,97052.13
2023-09-22T05:29:11.854Z,97058.13
2023-09-22T05:31:38.540Z,97056.56
2023-09-22T05:34:05.268Z,97054.16
2023-09-22T05:36:32.038Z,97053.84
2023-09-22T05:38:59.580Z,97056.94
2023-09-22T05:41:26.389Z,97058.28
2023-09-22T05:43:57.598Z,97064.66
2023-09-22T05:46:25.294Z,97052.13
2023-09-22T05:48:53.650Z,97058.22
2023-09-22T05:51:20.397Z,97055.34
2023-09-22T05:53:46.999Z,97056.50
2023-09-22T05:56:13.591Z,97061.81
2023-09-22T05:58:40.976Z,97068.88
2023-09-22T06:01:08.774Z,97073.00
2023-09-22T06:03:39.048Z,97078.97
2023-09-22T06:06:10.972Z,97077.78
2023-09-22T06:08:38.337Z,97079.06
2023-09-22T06:11:06.236Z,97089.41
2023-09-22T06:13:33.456Z,97087.81
2023-09-22T06:16:00.210Z,97085.78
2023-09-22T06:18:27.187Z,97088.97
2023-09-22T06:20:55.172Z,97081.19
2023-09-22T06:23:21.881Z,97079.13
2023-09-22T06:25:48.631Z,97081.88
2023-09-22T06:28:16.558Z,97089.47
2023-09-22T06:30:43.652Z,97077.22
2023-09-22T06:33:10.241Z,97077.19
2023-09-22T06:35:37.838Z,97082.66
2023-09-22T06:38:05.021Z,97077.13
2023-09-22T06:40:31.609Z,97089.75
2023-09-22T06:43:03.868Z,97082.34
2023-09-22T06:45:37.105Z,97084.63
2023-09-22T06:48:07.114Z,97090.47
2023-09-22T06:50:37.204Z,97090.06
2023-09-22T06:53:04.132Z,97091.09
2023-09-22T06:55:34.224Z,97098.84
2023-09-22T06:58:01.054Z,97099.16
2023-09-22T07:00:30.018Z,97095.41
2023-09-22T07:02:57.212Z,97111.81
2023-09-22T07:05:24.182Z,97107.56
2023-09-22T07:07:53.955Z,97104.28
2023-09-22T07:10:21.280Z,97105.25
2023-09-22T07:12:50.973Z,97103.91
2023-09-22T07:15:17.892Z,97105.56
2023-09-22T07:17:44.828Z,97108.63
2023-09-22T07:20:13.671Z,97114.56
2023-09-22T07:22:40.317Z,97106.59
2023-09-22T07:25:07.100Z,97110.59
2023-09-22T07:27:34.030Z,97119.13
2023-09-22T07:30:00.928Z,97127.06
2023-09-22T07:32:27.561Z,97130.44
2023-09-22T07:34:55.752Z,97121.66
2023-09-22T07:37:22.487Z,97128.50
2023-09-22T07:39:49.796Z,97126.13
2023-09-22T07:42:17.107Z,97122.28
2023-09-22T07:44:44.157Z,97122.66
2023-09-22T07:47:17.760Z,97124.97
2023-09-22T07:49:46.198Z,97124.06
2023-09-22T07:52:12.880Z,97116.94
2023-09-22T07:54:39.568Z,97115.28
2023-09-22T07:57:06.483Z,97113.13
2023-09-22T07:59:33.056Z,97129.22
2023-09-22T08:02:04.156Z,97123.75
2023-09-22T08:04:31.389Z,97123.69
2023-09-22T08:07:01.088Z,97134.41
2023-09-22T08:09:30.330Z,97126.31
2023-09-22T08:11:56.995Z,97140.81
2023-09-22T08:14:30.911Z,97153.59
2023-09-22T08:17:03.913Z,97150.16
2023-09-22T08:19:31.261Z,97143.72
2023-09-22T08:21:58.889Z,97146.06
2023-09-22T08:24:25.537Z,97146.72
2023-09-22T08:26:52.352Z,97145.19
2023-09-22T08:29:19.476Z,97137.72
2023-09-22T08:31:46.696Z,97130.38
2023-09-22T08:34:13.293Z,97141.94
2023-09-22T08:36:40.153Z,97143.88
2023-09-22T08:39:09.331Z,97146.00
2023-09-22T08:41:39.686Z,97135.56
2023-09-22T08:44:06.746Z,97135.25
2023-09-22T08:46:35.181Z,97122.88
2023-09-22T08:49:02.012Z,97121.94
2023-09-22T08:51:28.683Z,97124.22
2023-09-22T08:53:55.381Z,97114.16
2023-09-22T08:56:25.362Z,97120.25
2023-09-22T08:58:52.483Z,97112.56
2023-09-22T09:01:19.241Z,97121.44
2023-09-22T09:03:46.593Z,97127.84
2023-09-22T09:06:18.946Z,97123.44
2023-09-22T09:09:06.106Z,97124.38
2023-09-22T09:11:32.998Z,97138.88
2023-09-22T09:13:59.695Z,97139.78
2023-09-22T09:16:34.542Z,97142.50
2023-09-22T09:19:17.222Z,97147.66
2023-09-22T09:22:02.162Z,97145.41
2023-09-22T09:24:30.736Z,97147.34
2023-09-22T09:26:57.822Z,97147.47
2023-09-22T09:29:30.821Z,97146.53
2023-09-22T09:32:01.691Z,97147.53
2023-09-22T09:34:41.730Z,97138.19
2023-09-22T09:37:15.550Z,97132.84
2023-09-22T09:39:46.913Z,97134.72
2023-09-22T09:42:18.327Z,97138.91
2023-09-22T09:44:50.308Z,97132.44
2023-09-22T09:47:22.592Z,97139.94
2023-09-22T09:49:51.351Z,97126.53
2023-09-22T09:52:18.967Z,97129.63
2023-09-22T09:54:50.932Z,97130.72
2023-09-22T09:57:19.451Z,97129.03
2023-09-22T09:59:46.131Z,97135.44
2023-09-22T10:02:13.474Z,97121.91
2023-09-22T10:04:41.253Z,97123.19
2023-09-22T10:07:08.164Z,97128.56
2023-09-22T10:12:00.309Z,97132.91
2023-09-22T10:14:46.688Z,97136.84
2023-09-22T10:17:23.646Z,97134.00
2023-09-22T10:19:57.985Z,97145.97
2023-09-22T10:22:27.600Z,97139.72
2023-09-22T10:25:34.713Z,97140.63
2023-09-22T10:28:06.087Z,97140.16
2023-09-22T10:30:43.686Z,97138.03
2023-09-22T10:33:28.422Z,97131.94
2023-09-22T10:35:55.264Z,97130.06
2023-09-22T10:38:22.986Z,97130.72
2023-09-22T10:41:01.579Z,97133.97
2023-09-22T10:43:29.068Z,97132.72
2023-09-22T10:45:55.948Z,97135.34
2023-09-22T10:48:22.749Z,97133.75
2023-09-22T10:50:50.785Z,97132.31
2023-09-22T10:53:17.347Z,97128.13
2023-09-22T10:55:45.045Z,97125.91
2023-09-22T10:58:13.147Z,97127.22
2023-09-22T11:00:46.373Z,97127.38
2023-09-22T11:03:15.537Z,97137.19
2023-09-22T11:05:43.365Z,97134.13
2023-09-22T11:08:17.201Z,97138.91
2023-09-22T11:10:44.973Z,97136.75
2023-09-22T11:13:14.879Z,97141.06
2023-09-22T11:15:48.179Z,97138.16
2023-09-22T11:18:24.648Z,97121.53
2023-09-22T11:20:58.228Z,97123.28
2023-09-22T11:23:28.333Z,97116.00
2023-09-22T11:25:59.994Z,97128.38
2023-09-22T11:28:28.042Z,97113.81
2023-09-22T11:30:55.023Z,97119.97
2023-09-22T11:33:21.806Z,97124.91
2023-09-22T11:35:52.392Z,97132.50
2023-09-22T11:38:22.070Z,97137.84
2023-09-22T11:40:49.766Z,97138.31
2023-09-22T11:43:16.537Z,97140.25
2023-09-22T11:45:43.246Z,97143.72
2023-09-22T11:48:10.118Z,97140.44
2023-09-22T11:50:36.760Z,97138.66
2023-09-22T11:53:19.888Z,97134.22
2023-09-22T11:55:52.376Z,97121.00
2023-09-22T11:58:19.230Z,97120.09
2023-09-22T12:00:46.347Z,97127.88
2023-09-22T12:03:14.308Z,97126.69
2023-09-22T12:05:40.967Z,97136.03
2023-09-22T12:08:11.678Z,97146.38
2023-09-22T12:10:39.561Z,97144.09
2023-09-22T12:13:06.736Z,97140.88
2023-09-22T12:15:33.645Z,97149.75
2023-09-22T12:18:00.359Z,97143.88
2023-09-22T12:20:27.793Z,97152.38
2023-09-22T12:22:54.610Z,97149.75
2023-09-22T12:25:22.016Z,97148.25
2023-09-22T12:27:52.263Z,97152.22
2023-09-22T12:30:18.928Z,97161.72
2023-09-22T12:32:45.639Z,97160.75
2023-09-22T12:35:16.328Z,97150.88
2023-09-22T12:37:43.256Z,97147.66
2023-09-22T12:40:10.871Z,97147.06
2023-09-22T12:42:39.145Z,97150.06
2023-09-22T12:45:05.914Z,97160.97
2023-09-22T12:47:34.075Z,97168.91
2023-09-22T12:50:06.231Z,97162.56
2023-09-22T12:52:33.577Z,97167.09
2023-09-22T12:55:00.504Z,97164.22
2023-09-22T12:57:29.390Z,97157.88
2023-09-22T12:59:57.716Z,97162.66
2023-09-22T13:02:24.701Z,97167.63
2023-09-22T13:04:51.842Z,97167.34
2023-09-22T13:07:21.371Z,97171.84
2023-09-22T13:09:47.948Z,97163.28
2023-09-22T13:12:14.865Z,97164.28
2023-09-22T13:14:41.671Z,97174.53
2023-09-22T13:17:08.711Z,97179.13
2023-09-22T13:19:35.590Z,97182.66
2023-09-22T13:22:02.260Z,97194.97
2023-09-22T13:24:29.012Z,97195.16
2023-09-22T13:26:56.248Z,97191.84
2023-09-22T13:29:23.220Z,97195.75
2023-09-22T13:31:50.976Z,97202.03
2023-09-22T13:34:17.956Z,97190.03
2023-09-22T13:36:44.545Z,97187.78
2023-09-22T13:39:12.490Z,97187.06
2023-09-22T13:41:39.072Z,97192.22
2023-09-22T13:44:10.147Z,97203.34
2023-09-22T13:46:37.098Z,97198.09
2023-09-22T13:49:04.081Z,97197.63
2023-09-22T13:51:33.927Z,97191.94
2023-09-22T13:54:03.010Z,97197.22
2023-09-22T13:56:30.376Z,97203.56
2023-09-22T13:58:59.144Z,97212.97
2023-09-22T14:01:25.849Z,97208.19
2023-09-22T14:03:52.904Z,97197.03
2023-09-22T14:06:21.325Z,97198.81
2023-09-22T14:08:48.751Z,97196.88
2023-09-22T14:11:15.928Z,97193.53
2023-09-22T14:13:43.236Z,97196.56
2023-09-22T14:16:10.064Z,97191.50
2023-09-22T14:18:38.651Z,97191.38
2023-09-22T14:21:05.642Z,97200.38
2023-09-22T14:23:32.812Z,97194.03
2023-09-22T14:26:00.113Z,97188.97
2023-09-22T14:28:28.330Z,97196.50
2023-09-22T14:30:56.292Z,97204.75
2023-09-22T14:33:23.570Z,97202.94
2023-09-22T14:35:50.230Z,97196.34
2023-09-22T14:38:16.825Z,97191.78
2023-09-22T14:40:44.382Z,97194.56
2023-09-22T14:43:11.660Z,97187.63
2023-09-22T14:45:41.201Z,97181.66
2023-09-22T14:48:07.934Z,97186.44
2023-09-22T14:50:34.552Z,97183.06
2023-09-22T14:53:01.351Z,97194.22
2023-09-22T14:55:28.803Z,97200.06
2023-09-22T14:57:55.856Z,97197.22
2023-09-22T15:00:22.966Z,97201.84
2023-09-22T15:02:52.022Z,97197.88
2023-09-22T15:05:19.155Z,97197.84
2023-09-22T15:07:49.981Z,97197.56
2023-09-22T15:10:16.710Z,97195.09
2023-09-22T15:12:43.459Z,97196.50
2023-09-22T15:15:10.531Z,97192.16
2023-09-22T15:17:39.807Z,97204.47
2023-09-22T15:20:07.484Z,97200.53
2023-09-22T15:22:35.545Z,97197.84
2023-09-22T15:25:02.486Z,97194.34
2023-09-22T15:27:29.269Z,97195.25
2023-09-22T15:29:56.846Z,97203.34
2023-09-22T15:32:23.532Z,97204.88
2023-09-22T15:34:51.592Z,97202.34
2023-09-22T15:37:19.363Z,97204.50
2023-09-22T15:39:46.722Z,97199.66
2023-09-22T15:42:13.638Z,97210.53
2023-09-22T15:44:40.897Z,97205.72
2023-09-22T15:47:11.650Z,97205.31
2023-09-22T15:49:40.213Z,97210.00
2023-09-22T15:52:07.418Z,97211.53
2023-09-22T15:54:35.044Z,97212.59
2023-09-22T15:57:04.064Z,97215.59
2023-09-22T15:59:32.095Z,97227.03
2023-09-22T16:02:01.022Z,97230.84
2023-09-22T16:04:28.670Z,97226.41
2023-09-22T16:06:55.294Z,97227.72
2023-09-22T16:09:22.425Z,97229.84
2023-09-22T16:11:49.793Z,97227.56
2023-09-22T16:14:16.411Z,97227.38
2023-09-22T16:16:45.114Z,97231.03
2023-09-22T16:19:12.015Z,97238.28
2023-09-22T16:21:38.834Z,97227.56
2023-09-22T16:24:05.631Z,97230.94
2023-09-22T16:26:32.590Z,97222.56
2023-09-22T16:28:59.216Z,97227.88
2023-09-22T16:31:26.057Z,97229.19
2023-09-22T16:33:53.365Z,97237.63
2023-09-22T16:36:20.019Z,97225.41
2023-09-22T16:38:50.220Z,97236.00
2023-09-22T16:41:16.967Z,97232.88
2023-09-22T16:43:43.897Z,97237.31
2023-09-22T16:46:11.471Z,97235.84
2023-09-22T16:48:38.450Z,97230.59
2023-09-22T16:51:08.062Z,97228.06
2023-09-22T16:53:34.905Z,97225.53
2023-09-22T16:56:09.397Z,97221.06
2023-09-22T16:58:38.722Z,97241.38
2023-09-22T17:01:06.457Z,97245.19
2023-09-22T17:03:33.435Z,97245.03
2023-09-22T17:06:00.045Z,97249.31
2023-09-22T17:08:26.713Z,97251.91
2023-09-22T17:10:53.371Z,97265.25
2023-09-22T17:13:21.262Z,97276.69
2023-09-22T17:15:51.008Z,97271.47
2023-09-22T17:18:17.817Z,97239.66
2023-09-22T17:20:44.486Z,97240.34
2023-09-22T17:23:13.012Z,97252.41
2023-09-22T17:25:39.771Z,97248.16
2023-09-22T17:28:08.263Z,97243.34
2023-09-22T17:30:34.842Z,97237.25
2023-09-22T17:33:01.588Z,97242.53
2023-09-22T17:35:28.432Z,97241.91
2023-09-22T17:37:55.177Z,97236.47
2023-09-22T17:40:22.597Z,97230.34
2023-09-22T17:42:49.341Z,97240.91
2023-09-22T17:45:16.003Z,97233.09
2023-09-22T17:47:43.102Z,97232.91
2023-09-22T17:50:12.462Z,97240.50
2023-09-22T17:52:39.916Z,97253.09
2023-09-22T17:55:06.783Z,97280.91
2023-09-22T17:57:33.340Z,97291.44
2023-09-22T18:00:00.663Z,97286.78
2023-09-22T18:02:27.720Z,97277.09
2023-09-22T18:04:54.542Z,97290.78
2023-09-22T18:07:22.087Z,97326.59
2023-09-22T18:09:48.762Z,97321.75
2023-09-22T18:12:15.902Z,97318.78
2023-09-22T18:14:42.536Z,97333.69
2023-09-22T18:17:09.165Z,97291.97
2023-09-22T18:19:37.899Z,97249.56
2023-09-22T18:22:05.302Z,97294.34
2023-09-22T18:24:32.593Z,97288.09
2023-09-22T18:26:59.438Z,97284.41
2023-09-22T18:29:28.588Z,97279.50
2023-09-22T18:31:55.376Z,97276.53
2023-09-22T18:34:22.946Z,97267.88
2023-09-22T18:36:50.782Z,97263.06
2023-09-22T18:39:17.419Z,97263.72
2023-09-22T18:41:44.591Z,97253.16
2023-09-22T18:44:11.234Z,97253.50
2023-09-22T18:46:37.973Z,97255.16
2023-09-22T18:49:06.771Z,97262.31
2023-09-22T18:51:33.452Z,97266.78
2023-09-22T18:54:00.053Z,97274.38
2023-09-22T18:56:26.610Z,97269.38
2023-09-22T18:58:54.811Z,97270.66
2023-09-22T19:01:23.741Z,97278.84
2023-09-22T19:03:50.511Z,97296.75
2023-09-22T19:06:17.591Z,97372.81
2023-09-22T19:08:45.697Z,97356.44
2023-09-22T19:11:16.237Z,97344.66
2023-09-22T19:13:42.817Z,97350.31
2023-09-22T19:16:10.526Z,97305.31
2023-09-22T19:18:37.222Z,97299.88
2023-09-22T19:21:08.102Z,97307.03
2023-09-22T19:23:36.785Z,97284.72
2023-09-22T19:26:03.551Z,97277.38
2023-09-22T19:28:30.769Z,97284.72
2023-09-22T19:30:57.884Z,97277.25
2023-09-22T19:33:24.732Z,97278.25
2023-09-22T19:35:51.747Z,97274.41
2023-09-22T19:38:18.353Z,97267.66
2023-09-22T19:40:45.045Z,97284.03
2023-09-22T19:43:11.596Z,97285.75
2023-09-22T19:45:38.789Z,97289.97
2023-09-22T19:48:05.827Z,97298.41
2023-09-22T19:50:34.221Z,97293.19
2023-09-22T19:53:01.271Z,97295.34
2023-09-22T19:55:28.207Z,97293.91
2023-09-22T19:57:55.053Z,97299.47
2023-09-22T20:00:23.158Z,97289.34
2023-09-22T20:05:18.326Z,97274.50
2023-09-22T20:07:44.966Z,97272.59
2023-09-22T20:10:15.605Z,97279.94
2023-09-22T20:12:43.646Z,97272.78
2023-09-22T20:15:12.505Z,97274.03
2023-09-22T20:17:39.701Z,97269.28
2023-09-22T20:20:07.442Z,97261.31
2023-09-22T20:22:34.133Z,97260.34
2023-09-22T20:25:00.941Z,97259.50
2023-09-22T20:27:28.828Z,97255.09
2023-09-22T20:29:55.441Z,97264.69
2023-09-22T20:32:25.111Z,97265.56
2023-09-22T20:34:55.473Z,97260.75
2023-09-22T20:37:22.863Z,97258.50
2023-09-22T20:39:51.900Z,97268.53
2023-09-22T20:42:19.998Z,97267.69
2023-09-22T20:44:47.210Z,97270.38
2023-09-22T20:47:14.133Z,97265.63
2023-09-22T20:49:43.269Z,97259.69
2023-09-22T20:52:11.893Z,97264.31
2023-09-22T20:54:38.761Z,97259.03
2023-09-22T20:57:08.197Z,97263.66
2023-09-22T20:59:35.803Z,97262.41
2023-09-22T21:02:04.766Z,97254.50
2023-09-22T21:04:33.468Z,97263.16
2023-09-22T21:07:01.720Z,97261.09
2023-09-22T21:09:29.020Z,97262.56
2023-09-22T21:11:56.153Z,97253.13
2023-09-22T21:14:23.110Z,97251.94
2023-09-22T21:16:49.789Z,97250.88
2023-09-22T21:19:16.554Z,97246.66
2023-09-22T21:21:43.842Z,97246.97
2023-09-22T21:24:14.297Z,97251.25
2023-09-22T21:26:40.968Z,97240.47
2023-09-22T21:29:08.736Z,97234.47
2023-09-22T21:31:38.890Z,97243.03
2023-09-22T21:34:06.182Z,97242.66
2023-09-22T21:36:33.273Z,97247.97
2023-09-22T21:38:59.967Z,97247.03
2023-09-22T21:41:27.689Z,97249.56
2023-09-22T21:43:54.601Z,97249.47
2023-09-22T21:46:21.262Z,97253.81
2023-09-22T21:48:48.070Z,97264.06
2023-09-22T21:51:18.610Z,97267.91
2023-09-22T21:53:45.475Z,97263.38
2023-09-22T21:56:12.136Z,97256.97
2023-09-22T21:58:38.880Z,97255.16
2023-09-22T22:01:07.152Z,97260.50
2023-09-22T22:03:33.859Z,97262.25
2023-09-22T22:06:02.740Z,97266.28
2023-09-22T22:08:29.278Z,97272.00
2023-09-22T22:10:57.343Z,97270.75
2023-09-22T22:13:32.874Z,97266.13
2023-09-22T22:16:00.617Z,97262.38
2023-09-22T22:18:27.675Z,97266.78
2023-09-22T22:20:54.520Z,97269.31
2023-09-22T22:23:23.256Z,97268.78
2023-09-22T22:25:54.509Z,97279.09
2023-09-22T22:28:21.928Z,97270.53
2023-09-22T22:30:49.034Z,97281.91
2023-09-22T22:33:16.466Z,97286.97
2023-09-22T22:35:43.419Z,97284.88
2023-09-22T22:38:11.073Z,97287.41
2023-09-22T22:40:40.885Z,97281.50
2023-09-22T22:43:07.661Z,97281.31
2023-09-22T22:45:34.403Z,97283.84
2023-09-22T22:48:03.037Z,97274.41
2023-09-22T22:50:30.492Z,97277.97
2023-09-22T22:52:57.293Z,97289.97
2023-09-22T22:55:26.289Z,97285.53
2023-09-22T22:57:53.035Z,97293.72
2023-09-22T23:00:21.308Z,97304.84
2023-09-22T23:02:49.848Z,97296.22
2023-09-22T23:05:19.933Z,97299.97
2023-09-22T23:07:51.468Z,97306.91
2023-09-22T23:10:19.639Z,97317.00
2023-09-22T23:12:46.320Z,97329.81
2023-09-22T23:15:17.768Z,97329.16
2023-09-22T23:17:44.563Z,97327.88
2023-09-22T23:20:13.728Z,97323.84
2023-09-22T23:26:10.007Z,97324.69
2023-09-22T23:28:40.244Z,97349.44
2023-09-22T23:31:06.942Z,97334.94
2023-09-22T23:33:35.562Z,97357.16
2023-09-22T23:36:02.381Z,97346.19
2023-09-22T23:38:29.505Z,97368.59
2023-09-22T23:40:56.671Z,97372.06
2023-09-22T23:43:24.463Z,97377.16
2023-09-22T23:45:52.888Z,97378.69
2023-09-22T23:48:19.665Z,97392.03
2023-09-22T23:50:46.350Z,97397.25
2023-09-22T23:53:13.561Z,97413.03
2023-09-22T23:55:40.242Z,97422.50
2023-09-22T23:58:07.268Z,97424.47
